sensor_id;sensor_type;location;lat;lon;timestamp;temperature;humidity
831;DHT22;397;50.564;7.272;2023-11-21T00:00:44;8.50;99.90
831;DHT22;397;50.564;7.272;2023-11-21T00:03:12;8.50;99.90
831;DHT22;397;50.564;7.272;2023-11-21T00:05:41;8.50;99.90
831;DHT22;397;50.564;7.272;2023-11-21T00:08:09;8.50;99.90
831;DHT22;397;50.564;7.272;2023-11-21T00:10:37;8.50;99.90
831;DHT22;397;50.564;7.272;2023-11-21T00:13:05;8.50;99.90
831;DHT22;397;50.564;7.272;2023-11-21T00:15:32;8.40;99.90
831;DHT22;397;50.564;7.272;2023-11-21T00:18:00;8.40;99.90
831;DHT22;397;50.564;7.272;2023-11-21T00:20:28;8.50;99.90
831;DHT22;397;50.564;7.272;2023-11-21T00:22:55;8.50;99.90
831;DHT22;397;50.564;7.272;2023-11-21T00:25:23;8.50;99.90
831;DHT22;397;50.564;7.272;2023-11-21T00:27:51;8.60;99.90
831;DHT22;397;50.564;7.272;2023-11-21T00:30:19;8.50;99.90
831;DHT22;397;50.564;7.272;2023-11-21T00:32:48;8.50;99.90
831;DHT22;397;50.564;7.272;2023-11-21T00:35:15;8.60;99.90
831;DHT22;397;50.564;7.272;2023-11-21T00:37:43;8.70;99.90
831;DHT22;397;50.564;7.272;2023-11-21T00:40:11;8.70;99.90
831;DHT22;397;50.564;7.272;2023-11-21T00:42:41;8.70;99.90
831;DHT22;397;50.564;7.272;2023-11-21T00:45:09;8.60;99.90
831;DHT22;397;50.564;7.272;2023-11-21T00:47:36;8.60;99.90
831;DHT22;397;50.564;7.272;2023-11-21T00:50:05;8.60;99.90
831;DHT22;397;50.564;7.272;2023-11-21T00:52:33;8.60;99.90
831;DHT22;397;50.564;7.272;2023-11-21T00:55:01;8.60;99.90
831;DHT22;397;50.564;7.272;2023-11-21T00:57:29;8.70;99.90
831;DHT22;397;50.564;7.272;2023-11-21T00:59:57;8.60;99.90
831;DHT22;397;50.564;7.272;2023-11-21T01:02:24;8.70;99.90
831;DHT22;397;50.564;7.272;2023-11-21T01:04:52;8.70;99.90
831;DHT22;397;50.564;7.272;2023-11-21T01:07:19;8.60;99.90
831;DHT22;397;50.564;7.272;2023-11-21T01:09:47;8.70;99.90
831;DHT22;397;50.564;7.272;2023-11-21T01:12:15;8.70;99.90
831;DHT22;397;50.564;7.272;2023-11-21T01:14:44;8.70;99.90
831;DHT22;397;50.564;7.272;2023-11-21T01:17:12;8.60;99.90
831;DHT22;397;50.564;7.272;2023-11-21T01:19:39;8.60;99.90
831;DHT22;397;50.564;7.272;2023-11-21T01:22:06;8.70;99.90
831;DHT22;397;50.564;7.272;2023-11-21T01:24:35;8.70;99.90
831;DHT22;397;50.564;7.272;2023-11-21T01:27:02;8.70;99.90
831;DHT22;397;50.564;7.272;2023-11-21T01:29:30;8.70;99.90
831;DHT22;397;50.564;7.272;2023-11-21T01:31:58;8.60;99.90
831;DHT22;397;50.564;7.272;2023-11-21T01:34:25;8.70;99.90
831;DHT22;397;50.564;7.272;2023-11-21T01:36:53;8.70;99.90
831;DHT22;397;50.564;7.272;2023-11-21T01:39:20;8.80;99.90
831;DHT22;397;50.564;7.272;2023-11-21T01:41:50;8.80;99.90
831;DHT22;397;50.564;7.272;2023-11-21T01:44:18;8.80;99.90
831;DHT22;397;50.564;7.272;2023-11-21T01:46:46;8.80;99.90
831;DHT22;397;50.564;7.272;2023-11-21T01:49:14;8.80;99.90
831;DHT22;397;50.564;7.272;2023-11-21T01:51:48;8.80;99.90
831;DHT22;397;50.564;7.272;2023-11-21T01:54:13;8.80;99.90
831;DHT22;397;50.564;7.272;2023-11-21T01:56:40;8.80;99.90
831;DHT22;397;50.564;7.272;2023-11-21T01:59:08;8.90;99.90
831;DHT22;397;50.564;7.272;2023-11-21T02:01:36;8.80;99.90
831;DHT22;397;50.564;7.272;2023-11-21T02:04:03;8.90;99.90
831;DHT22;397;50.564;7.272;2023-11-21T02:06:31;8.90;99.90
831;DHT22;397;50.564;7.272;2023-11-21T02:08:58;8.90;99.90
831;DHT22;397;50.564;7.272;2023-11-21T02:11:26;8.90;99.90
831;DHT22;397;50.564;7.272;2023-11-21T02:13:54;8.90;99.90
831;DHT22;397;50.564;7.272;2023-11-21T02:16:21;8.90;99.90
831;DHT22;397;50.564;7.272;2023-11-21T02:18:50;8.90;99.90
831;DHT22;397;50.564;7.272;2023-11-21T02:21:18;8.90;99.90
831;DHT22;397;50.564;7.272;2023-11-21T02:23:46;8.80;99.90
831;DHT22;397;50.564;7.272;2023-11-21T02:26:13;8.80;99.90
831;DHT22;397;50.564;7.272;2023-11-21T02:28:41;8.90;99.90
831;DHT22;397;50.564;7.272;2023-11-21T02:31:09;8.90;99.90
831;DHT22;397;50.564;7.272;2023-11-21T02:33:36;8.90;99.90
831;DHT22;397;50.564;7.272;2023-11-21T02:36:04;8.90;99.90
831;DHT22;397;50.564;7.272;2023-11-21T02:38:32;8.90;99.90
831;DHT22;397;50.564;7.272;2023-11-21T02:40:59;8.90;99.90
831;DHT22;397;50.564;7.272;2023-11-21T02:43:26;8.90;99.90
831;DHT22;397;50.564;7.272;2023-11-21T02:45:54;9.00;99.90
831;DHT22;397;50.564;7.272;2023-11-21T02:48:21;8.90;99.90
831;DHT22;397;50.564;7.272;2023-11-21T02:50:51;8.90;99.90
831;DHT22;397;50.564;7.272;2023-11-21T02:53:19;8.90;99.90
831;DHT22;397;50.564;7.272;2023-11-21T02:55:47;8.90;99.90
831;DHT22;397;50.564;7.272;2023-11-21T02:58:14;9.00;99.90
831;DHT22;397;50.564;7.272;2023-11-21T03:00:42;8.90;99.90
831;DHT22;397;50.564;7.272;2023-11-21T03:03:09;8.90;99.90
831;DHT22;397;50.564;7.272;2023-11-21T03:05:37;8.90;99.90
831;DHT22;397;50.564;7.272;2023-11-21T03:08:04;8.90;99.90
831;DHT22;397;50.564;7.272;2023-11-21T03:10:32;9.00;99.90
831;DHT22;397;50.564;7.272;2023-11-21T03:13:00;8.90;99.90
831;DHT22;397;50.564;7.272;2023-11-21T03:15:27;9.00;99.90
831;DHT22;397;50.564;7.272;2023-11-21T03:17:54;9.00;99.90
831;DHT22;397;50.564;7.272;2023-11-21T03:20:22;9.00;99.90
831;DHT22;397;50.564;7.272;2023-11-21T03:22:50;9.00;99.90
831;DHT22;397;50.564;7.272;2023-11-21T03:25:17;9.00;99.90
831;DHT22;397;50.564;7.272;2023-11-21T03:27:45;9.00;99.90
831;DHT22;397;50.564;7.272;2023-11-21T03:30:12;9.00;99.90
831;DHT22;397;50.564;7.272;2023-11-21T03:32:40;8.90;99.90
831;DHT22;397;50.564;7.272;2023-11-21T03:35:08;8.90;99.90
831;DHT22;397;50.564;7.272;2023-11-21T03:37:36;9.00;99.90
831;DHT22;397;50.564;7.272;2023-11-21T03:40:06;8.90;99.90
831;DHT22;397;50.564;7.272;2023-11-21T03:42:34;9.00;99.90
831;DHT22;397;50.564;7.272;2023-11-21T03:45:02;9.00;99.90
831;DHT22;397;50.564;7.272;2023-11-21T03:47:30;8.90;99.90
831;DHT22;397;50.564;7.272;2023-11-21T03:49:57;8.90;99.90
831;DHT22;397;50.564;7.272;2023-11-21T03:52:25;8.90;99.90
831;DHT22;397;50.564;7.272;2023-11-21T03:54:54;9.00;99.90
831;DHT22;397;50.564;7.272;2023-11-21T03:57:22;8.90;99.90
831;DHT22;397;50.564;7.272;2023-11-21T03:59:49;8.90;99.90
831;DHT22;397;50.564;7.272;2023-11-21T04:02:17;8.90;99.90
831;DHT22;397;50.564;7.272;2023-11-21T04:04:44;8.90;99.90
831;DHT22;397;50.564;7.272;2023-11-21T04:07:12;8.90;99.90
831;DHT22;397;50.564;7.272;2023-11-21T04:09:40;8.90;99.90
831;DHT22;397;50.564;7.272;2023-11-21T04:12:08;9.00;99.90
831;DHT22;397;50.564;7.272;2023-11-21T04:14:36;8.90;99.90
831;DHT22;397;50.564;7.272;2023-11-21T04:17:03;8.90;99.90
831;DHT22;397;50.564;7.272;2023-11-21T04:19:31;8.90;99.90
831;DHT22;397;50.564;7.272;2023-11-21T04:21:58;8.90;99.90
831;DHT22;397;50.564;7.272;2023-11-21T04:24:26;8.80;99.90
831;DHT22;397;50.564;7.272;2023-11-21T04:26:53;8.90;99.90
831;DHT22;397;50.564;7.272;2023-11-21T04:29:21;8.90;99.90
831;DHT22;397;50.564;7.272;2023-11-21T04:31:49;8.80;99.90
831;DHT22;397;50.564;7.272;2023-11-21T04:34:16;8.80;99.90
831;DHT22;397;50.564;7.272;2023-11-21T04:36:44;8.80;99.90
831;DHT22;397;50.564;7.272;2023-11-21T04:39:11;8.80;99.90
831;DHT22;397;50.564;7.272;2023-11-21T04:41:39;8.90;99.90
831;DHT22;397;50.564;7.272;2023-11-21T04:44:07;8.90;99.90
831;DHT22;397;50.564;7.272;2023-11-21T04:46:34;8.80;99.90
831;DHT22;397;50.564;7.272;2023-11-21T04:49:01;8.80;99.90
831;DHT22;397;50.564;7.272;2023-11-21T04:51:29;8.80;99.90
831;DHT22;397;50.564;7.272;2023-11-21T04:53:58;8.80;99.90
831;DHT22;397;50.564;7.272;2023-11-21T04:56:26;8.70;99.90
831;DHT22;397;50.564;7.272;2023-11-21T04:58:54;8.80;99.90
831;DHT22;397;50.564;7.272;2023-11-21T05:01:21;8.80;99.90
831;DHT22;397;50.564;7.272;2023-11-21T05:03:49;8.80;99.90
831;DHT22;397;50.564;7.272;2023-11-21T05:06:16;8.80;99.90
831;DHT22;397;50.564;7.272;2023-11-21T05:08:44;8.80;99.90
831;DHT22;397;50.564;7.272;2023-11-21T05:11:11;8.80;99.90
831;DHT22;397;50.564;7.272;2023-11-21T05:13:39;8.80;99.90
831;DHT22;397;50.564;7.272;2023-11-21T05:16:26;8.80;99.90
831;DHT22;397;50.564;7.272;2023-11-21T05:18:55;8.80;99.90
831;DHT22;397;50.564;7.272;2023-11-21T05:21:27;8.80;99.90
831;DHT22;397;50.564;7.272;2023-11-21T05:23:57;8.80;99.90
831;DHT22;397;50.564;7.272;2023-11-21T05:26:24;8.80;99.90
831;DHT22;397;50.564;7.272;2023-11-21T05:28:52;8.70;99.90
831;DHT22;397;50.564;7.272;2023-11-21T05:31:19;8.70;99.90
831;DHT22;397;50.564;7.272;2023-11-21T05:33:47;8.70;99.90
831;DHT22;397;50.564;7.272;2023-11-21T05:36:14;8.70;99.90
831;DHT22;397;50.564;7.272;2023-11-21T05:38:42;8.80;99.90
831;DHT22;397;50.564;7.272;2023-11-21T05:41:09;8.70;99.90
831;DHT22;397;50.564;7.272;2023-11-21T05:43:39;8.70;99.90
831;DHT22;397;50.564;7.272;2023-11-21T05:46:07;8.70;99.90
831;DHT22;397;50.564;7.272;2023-11-21T05:48:35;8.80;99.90
831;DHT22;397;50.564;7.272;2023-11-21T05:51:05;8.80;99.90
831;DHT22;397;50.564;7.272;2023-11-21T05:53:33;8.70;99.90
831;DHT22;397;50.564;7.272;2023-11-21T05:56:00;8.70;99.90
831;DHT22;397;50.564;7.272;2023-11-21T05:58:30;8.70;99.90
831;DHT22;397;50.564;7.272;2023-11-21T06:00:57;8.70;99.90
831;DHT22;397;50.564;7.272;2023-11-21T06:03:25;8.70;99.90
831;DHT22;397;50.564;7.272;2023-11-21T06:05:52;8.70;99.90
831;DHT22;397;50.564;7.272;2023-11-21T06:08:20;8.60;99.90
831;DHT22;397;50.564;7.272;2023-11-21T06:10:47;8.60;99.90
831;DHT22;397;50.564;7.272;2023-11-21T06:13:15;8.70;99.90
831;DHT22;397;50.564;7.272;2023-11-21T06:15:45;8.70;99.90
831;DHT22;397;50.564;7.272;2023-11-21T06:18:12;8.70;99.90
831;DHT22;397;50.564;7.272;2023-11-21T06:20:40;8.70;99.90
831;DHT22;397;50.564;7.272;2023-11-21T06:23:08;8.70;99.90
831;DHT22;397;50.564;7.272;2023-11-21T06:25:35;8.70;99.90
831;DHT22;397;50.564;7.272;2023-11-21T06:28:03;8.80;99.90
831;DHT22;397;50.564;7.272;2023-11-21T06:30:31;8.80;99.90
831;DHT22;397;50.564;7.272;2023-11-21T06:32:59;8.70;99.90
831;DHT22;397;50.564;7.272;2023-11-21T06:35:27;8.70;99.90
831;DHT22;397;50.564;7.272;2023-11-21T06:37:56;8.60;99.90
831;DHT22;397;50.564;7.272;2023-11-21T06:40:24;8.60;99.90
831;DHT22;397;50.564;7.272;2023-11-21T06:42:51;8.70;99.90
831;DHT22;397;50.564;7.272;2023-11-21T06:45:19;8.70;99.90
831;DHT22;397;50.564;7.272;2023-11-21T06:47:46;8.70;99.90
831;DHT22;397;50.564;7.272;2023-11-21T06:50:14;8.80;99.90
831;DHT22;397;50.564;7.272;2023-11-21T06:52:42;8.80;99.90
831;DHT22;397;50.564;7.272;2023-11-21T06:55:09;8.80;99.90
831;DHT22;397;50.564;7.272;2023-11-21T06:57:37;8.80;99.90
831;DHT22;397;50.564;7.272;2023-11-21T07:00:05;8.80;99.90
831;DHT22;397;50.564;7.272;2023-11-21T07:02:35;8.70;99.90
831;DHT22;397;50.564;7.272;2023-11-21T07:05:03;8.70;99.90
831;DHT22;397;50.564;7.272;2023-11-21T07:07:32;8.70;99.90
831;DHT22;397;50.564;7.272;2023-11-21T07:10:01;8.80;99.90
831;DHT22;397;50.564;7.272;2023-11-21T07:12:31;8.80;99.90
831;DHT22;397;50.564;7.272;2023-11-21T07:14:59;8.70;99.90
831;DHT22;397;50.564;7.272;2023-11-21T07:17:27;8.70;99.90
831;DHT22;397;50.564;7.272;2023-11-21T07:19:54;8.70;99.90
831;DHT22;397;50.564;7.272;2023-11-21T07:22:22;8.70;99.90
831;DHT22;397;50.564;7.272;2023-11-21T07:24:50;8.80;99.90
831;DHT22;397;50.564;7.272;2023-11-21T07:27:18;8.80;99.90
831;DHT22;397;50.564;7.272;2023-11-21T07:29:45;8.90;99.90
831;DHT22;397;50.564;7.272;2023-11-21T07:32:15;8.90;99.90
831;DHT22;397;50.564;7.272;2023-11-21T07:34:42;8.90;99.90
831;DHT22;397;50.564;7.272;2023-11-21T07:37:10;8.90;99.90
831;DHT22;397;50.564;7.272;2023-11-21T07:39:37;8.90;99.90
831;DHT22;397;50.564;7.272;2023-11-21T07:42:06;8.90;99.90
831;DHT22;397;50.564;7.272;2023-11-21T07:44:34;8.90;99.90
831;DHT22;397;50.564;7.272;2023-11-21T07:47:01;8.90;99.90
831;DHT22;397;50.564;7.272;2023-11-21T07:49:29;8.90;99.90
831;DHT22;397;50.564;7.272;2023-11-21T07:51:57;9.00;99.90
831;DHT22;397;50.564;7.272;2023-11-21T07:54:24;8.90;99.90
831;DHT22;397;50.564;7.272;2023-11-21T07:56:52;8.90;99.90
831;DHT22;397;50.564;7.272;2023-11-21T07:59:19;9.00;99.90
831;DHT22;397;50.564;7.272;2023-11-21T08:01:47;9.00;99.90
831;DHT22;397;50.564;7.272;2023-11-21T08:04:14;8.90;99.90
831;DHT22;397;50.564;7.272;2023-11-21T08:06:42;8.90;99.90
831;DHT22;397;50.564;7.272;2023-11-21T08:09:09;9.00;99.90
831;DHT22;397;50.564;7.272;2023-11-21T08:11:39;9.00;99.90
831;DHT22;397;50.564;7.272;2023-11-21T08:14:06;9.00;99.90
831;DHT22;397;50.564;7.272;2023-11-21T08:16:34;9.00;99.90
831;DHT22;397;50.564;7.272;2023-11-21T08:19:01;9.00;99.90
831;DHT22;397;50.564;7.272;2023-11-21T08:21:29;9.00;99.90
831;DHT22;397;50.564;7.272;2023-11-21T08:23:57;9.00;99.90
831;DHT22;397;50.564;7.272;2023-11-21T08:26:25;9.00;99.90
831;DHT22;397;50.564;7.272;2023-11-21T08:28:52;9.10;99.90
831;DHT22;397;50.564;7.272;2023-11-21T08:31:26;9.10;99.90
831;DHT22;397;50.564;7.272;2023-11-21T08:33:54;9.10;99.90
831;DHT22;397;50.564;7.272;2023-11-21T08:36:22;9.10;99.90
831;DHT22;397;50.564;7.272;2023-11-21T08:38:51;9.10;99.90
831;DHT22;397;50.564;7.272;2023-11-21T08:41:21;9.10;99.90
831;DHT22;397;50.564;7.272;2023-11-21T08:43:50;9.20;99.90
831;DHT22;397;50.564;7.272;2023-11-21T08:46:18;9.20;99.90
831;DHT22;397;50.564;7.272;2023-11-21T08:48:45;9.20;99.90
831;DHT22;397;50.564;7.272;2023-11-21T08:51:13;9.30;99.90
831;DHT22;397;50.564;7.272;2023-11-21T08:53:40;9.30;99.90
831;DHT22;397;50.564;7.272;2023-11-21T08:56:12;9.30;99.90
831;DHT22;397;50.564;7.272;2023-11-21T08:58:37;9.30;99.90
831;DHT22;397;50.564;7.272;2023-11-21T09:01:05;9.30;99.90
831;DHT22;397;50.564;7.272;2023-11-21T09:03:33;9.30;99.90
831;DHT22;397;50.564;7.272;2023-11-21T09:06:02;9.30;99.90
831;DHT22;397;50.564;7.272;2023-11-21T09:08:30;9.30;99.90
831;DHT22;397;50.564;7.272;2023-11-21T09:10:58;9.30;99.90
831;DHT22;397;50.564;7.272;2023-11-21T09:13:26;9.30;99.90
831;DHT22;397;50.564;7.272;2023-11-21T09:15:53;9.20;99.90
831;DHT22;397;50.564;7.272;2023-11-21T09:18:21;9.20;99.90
831;DHT22;397;50.564;7.272;2023-11-21T09:20:49;9.30;99.90
831;DHT22;397;50.564;7.272;2023-11-21T09:23:16;9.30;99.90
831;DHT22;397;50.564;7.272;2023-11-21T09:25:44;9.40;99.90
831;DHT22;397;50.564;7.272;2023-11-21T09:28:13;9.40;99.90
831;DHT22;397;50.564;7.272;2023-11-21T09:30:41;9.40;99.90
831;DHT22;397;50.564;7.272;2023-11-21T09:33:09;9.40;99.90
831;DHT22;397;50.564;7.272;2023-11-21T09:35:40;9.40;99.90
831;DHT22;397;50.564;7.272;2023-11-21T09:38:08;9.50;99.90
831;DHT22;397;50.564;7.272;2023-11-21T09:40:38;9.50;99.90
831;DHT22;397;50.564;7.272;2023-11-21T09:43:14;9.50;99.90
831;DHT22;397;50.564;7.272;2023-11-21T09:45:41;9.50;99.90
831;DHT22;397;50.564;7.272;2023-11-21T09:48:10;9.60;99.90
831;DHT22;397;50.564;7.272;2023-11-21T09:50:38;9.50;99.90
831;DHT22;397;50.564;7.272;2023-11-21T09:53:21;9.50;99.90
831;DHT22;397;50.564;7.272;2023-11-21T09:55:52;9.60;99.90
831;DHT22;397;50.564;7.272;2023-11-21T09:58:20;9.60;99.90
831;DHT22;397;50.564;7.272;2023-11-21T10:00:53;9.60;99.90
831;DHT22;397;50.564;7.272;2023-11-21T10:03:21;9.60;99.90
831;DHT22;397;50.564;7.272;2023-11-21T10:05:50;9.60;99.90
831;DHT22;397;50.564;7.272;2023-11-21T10:08:20;9.60;99.90
831;DHT22;397;50.564;7.272;2023-11-21T10:10:53;9.60;99.90
831;DHT22;397;50.564;7.272;2023-11-21T10:13:20;9.60;99.90
831;DHT22;397;50.564;7.272;2023-11-21T10:15:50;9.60;99.90
831;DHT22;397;50.564;7.272;2023-11-21T10:18:18;9.60;99.90
831;DHT22;397;50.564;7.272;2023-11-21T10:20:45;9.60;99.90
831;DHT22;397;50.564;7.272;2023-11-21T10:23:15;9.60;99.90
831;DHT22;397;50.564;7.272;2023-11-21T10:25:42;9.70;99.90
831;DHT22;397;50.564;7.272;2023-11-21T10:28:10;9.70;99.90
831;DHT22;397;50.564;7.272;2023-11-21T10:30:38;9.70;99.90
831;DHT22;397;50.564;7.272;2023-11-21T10:33:07;9.70;99.90
831;DHT22;397;50.564;7.272;2023-11-21T10:35:45;9.70;99.90
831;DHT22;397;50.564;7.272;2023-11-21T10:38:15;9.70;99.90
831;DHT22;397;50.564;7.272;2023-11-21T10:40:44;9.70;99.90
831;DHT22;397;50.564;7.272;2023-11-21T10:43:13;9.80;99.90
831;DHT22;397;50.564;7.272;2023-11-21T10:45:43;9.80;99.90
831;DHT22;397;50.564;7.272;2023-11-21T10:48:13;9.80;99.90
831;DHT22;397;50.564;7.272;2023-11-21T10:50:45;9.80;99.90
831;DHT22;397;50.564;7.272;2023-11-21T10:53:13;9.90;99.90
831;DHT22;397;50.564;7.272;2023-11-21T10:55:41;9.90;99.90
831;DHT22;397;50.564;7.272;2023-11-21T10:58:11;10.00;99.90
831;DHT22;397;50.564;7.272;2023-11-21T11:00:40;10.00;99.90
831;DHT22;397;50.564;7.272;2023-11-21T11:03:10;10.00;99.90
831;DHT22;397;50.564;7.272;2023-11-21T11:05:40;10.10;99.90
831;DHT22;397;50.564;7.272;2023-11-21T11:08:13;10.10;99.90
831;DHT22;397;50.564;7.272;2023-11-21T11:10:48;10.10;99.90
831;DHT22;397;50.564;7.272;2023-11-21T11:13:14;10.10;99.90
831;DHT22;397;50.564;7.272;2023-11-21T11:15:43;10.10;99.90
831;DHT22;397;50.564;7.272;2023-11-21T11:18:12;10.10;99.90
831;DHT22;397;50.564;7.272;2023-11-21T11:20:41;10.10;99.90
831;DHT22;397;50.564;7.272;2023-11-21T11:28:48;10.10;99.90
831;DHT22;397;50.564;7.272;2023-11-21T11:34:29;10.20;99.90
831;DHT22;397;50.564;7.272;2023-11-21T11:37:17;10.20;99.90
831;DHT22;397;50.564;7.272;2023-11-21T11:39:45;10.30;99.90
831;DHT22;397;50.564;7.272;2023-11-21T11:42:17;10.40;99.90
831;DHT22;397;50.564;7.272;2023-11-21T11:44:48;10.50;99.90
831;DHT22;397;50.564;7.272;2023-11-21T11:47:23;10.50;99.90
831;DHT22;397;50.564;7.272;2023-11-21T11:52:41;10.50;99.90
831;DHT22;397;50.564;7.272;2023-11-21T11:55:13;10.50;99.90
831;DHT22;397;50.564;7.272;2023-11-21T11:57:44;10.50;99.90
831;DHT22;397;50.564;7.272;2023-11-21T12:00:20;10.50;99.90
831;DHT22;397;50.564;7.272;2023-11-21T12:02:51;10.50;99.90
831;DHT22;397;50.564;7.272;2023-11-21T12:05:20;10.50;99.90
831;DHT22;397;50.564;7.272;2023-11-21T12:07:55;10.50;99.90
831;DHT22;397;50.564;7.272;2023-11-21T12:10:22;10.50;99.90
831;DHT22;397;50.564;7.272;2023-11-21T12:12:54;10.50;99.90
831;DHT22;397;50.564;7.272;2023-11-21T12:15:21;10.50;99.90
831;DHT22;397;50.564;7.272;2023-11-21T12:17:50;10.50;99.90
831;DHT22;397;50.564;7.272;2023-11-21T12:20:21;10.50;99.90
831;DHT22;397;50.564;7.272;2023-11-21T12:22:53;10.50;99.90
831;DHT22;397;50.564;7.272;2023-11-21T12:25:26;10.50;99.90
831;DHT22;397;50.564;7.272;2023-11-21T12:27:59;10.50;99.90
831;DHT22;397;50.564;7.272;2023-11-21T12:30:28;10.50;99.90
831;DHT22;397;50.564;7.272;2023-11-21T12:32:59;10.50;99.90
831;DHT22;397;50.564;7.272;2023-11-21T12:35:34;10.50;99.90
831;DHT22;397;50.564;7.272;2023-11-21T12:38:01;10.50;99.90
831;DHT22;397;50.564;7.272;2023-11-21T12:40:32;10.50;99.90
831;DHT22;397;50.564;7.272;2023-11-21T12:43:00;10.50;99.90
831;DHT22;397;50.564;7.272;2023-11-21T12:45:29;10.50;99.90
831;DHT22;397;50.564;7.272;2023-11-21T12:48:00;10.60;99.90
831;DHT22;397;50.564;7.272;2023-11-21T12:50:31;10.50;99.90
831;DHT22;397;50.564;7.272;2023-11-21T12:53:02;10.50;99.90
831;DHT22;397;50.564;7.272;2023-11-21T12:55:33;10.50;99.90
831;DHT22;397;50.564;7.272;2023-11-21T12:58:03;10.40;99.90
831;DHT22;397;50.564;7.272;2023-11-21T13:00:49;10.40;99.90
831;DHT22;397;50.564;7.272;2023-11-21T13:03:18;10.40;99.90
831;DHT22;397;50.564;7.272;2023-11-21T13:05:47;10.30;99.90
831;DHT22;397;50.564;7.272;2023-11-21T13:08:21;10.30;99.90
831;DHT22;397;50.564;7.272;2023-11-21T13:10:54;10.30;99.90
831;DHT22;397;50.564;7.272;2023-11-21T13:13:23;10.30;99.90
831;DHT22;397;50.564;7.272;2023-11-21T13:15:55;10.20;99.90
831;DHT22;397;50.564;7.272;2023-11-21T13:18:26;10.20;99.90
831;DHT22;397;50.564;7.272;2023-11-21T13:20:56;10.30;99.90
831;DHT22;397;50.564;7.272;2023-11-21T13:23:24;10.30;99.90
831;DHT22;397;50.564;7.272;2023-11-21T13:25:53;10.30;99.90
831;DHT22;397;50.564;7.272;2023-11-21T13:28:20;10.30;99.90
831;DHT22;397;50.564;7.272;2023-11-21T13:30:49;10.40;99.90
831;DHT22;397;50.564;7.272;2023-11-21T13:33:19;10.40;99.90
831;DHT22;397;50.564;7.272;2023-11-21T13:35:48;10.40;99.90
831;DHT22;397;50.564;7.272;2023-11-21T13:38:18;10.40;99.90
831;DHT22;397;50.564;7.272;2023-11-21T13:40:49;10.40;99.90
831;DHT22;397;50.564;7.272;2023-11-21T13:43:20;10.40;99.90
831;DHT22;397;50.564;7.272;2023-11-21T13:45:49;10.40;99.90
831;DHT22;397;50.564;7.272;2023-11-21T13:48:24;10.40;99.90
831;DHT22;397;50.564;7.272;2023-11-21T13:51:12;10.40;99.90
831;DHT22;397;50.564;7.272;2023-11-21T13:53:47;10.40;99.90
831;DHT22;397;50.564;7.272;2023-11-21T13:56:17;10.40;99.90
831;DHT22;397;50.564;7.272;2023-11-21T13:58:46;10.40;99.90
831;DHT22;397;50.564;7.272;2023-11-21T14:01:22;10.40;99.90
831;DHT22;397;50.564;7.272;2023-11-21T14:04:02;10.40;99.90
831;DHT22;397;50.564;7.272;2023-11-21T14:06:48;10.40;99.90
831;DHT22;397;50.564;7.272;2023-11-21T14:09:23;10.40;99.90
831;DHT22;397;50.564;7.272;2023-11-21T14:11:56;10.30;99.90
831;DHT22;397;50.564;7.272;2023-11-21T14:14:25;10.30;99.90
831;DHT22;397;50.564;7.272;2023-11-21T14:16:54;10.30;99.90
831;DHT22;397;50.564;7.272;2023-11-21T14:19:23;10.30;99.90
831;DHT22;397;50.564;7.272;2023-11-21T14:21:52;10.30;99.90
831;DHT22;397;50.564;7.272;2023-11-21T14:24:20;10.30;99.90
831;DHT22;397;50.564;7.272;2023-11-21T14:26:49;10.20;99.90
831;DHT22;397;50.564;7.272;2023-11-21T14:29:18;10.20;99.90
831;DHT22;397;50.564;7.272;2023-11-21T14:31:50;10.20;99.90
831;DHT22;397;50.564;7.272;2023-11-21T14:34:19;10.20;99.90
831;DHT22;397;50.564;7.272;2023-11-21T14:36:48;10.20;99.90
831;DHT22;397;50.564;7.272;2023-11-21T14:39:16;10.20;99.90
831;DHT22;397;50.564;7.272;2023-11-21T14:41:45;10.20;99.90
831;DHT22;397;50.564;7.272;2023-11-21T14:44:12;10.20;99.90
831;DHT22;397;50.564;7.272;2023-11-21T14:46:41;10.10;99.90
831;DHT22;397;50.564;7.272;2023-11-21T14:49:13;10.10;99.90
831;DHT22;397;50.564;7.272;2023-11-21T14:51:49;10.10;99.90
831;DHT22;397;50.564;7.272;2023-11-21T14:54:33;10.10;99.90
831;DHT22;397;50.564;7.272;2023-11-21T14:57:10;10.10;99.90
831;DHT22;397;50.564;7.272;2023-11-21T14:59:43;10.10;99.90
831;DHT22;397;50.564;7.272;2023-11-21T15:02:12;10.10;99.90
831;DHT22;397;50.564;7.272;2023-11-21T15:04:44;10.10;99.90
831;DHT22;397;50.564;7.272;2023-11-21T15:07:12;10.10;99.90
831;DHT22;397;50.564;7.272;2023-11-21T15:09:40;10.10;99.90
831;DHT22;397;50.564;7.272;2023-11-21T15:12:09;10.00;99.90
831;DHT22;397;50.564;7.272;2023-11-21T15:14:47;10.00;99.90
831;DHT22;397;50.564;7.272;2023-11-21T15:17:17;10.00;99.90
831;DHT22;397;50.564;7.272;2023-11-21T15:19:55;10.10;99.90
831;DHT22;397;50.564;7.272;2023-11-21T15:22:23;10.00;99.90
831;DHT22;397;50.564;7.272;2023-11-21T15:24:53;10.00;99.90
831;DHT22;397;50.564;7.272;2023-11-21T15:27:20;10.00;99.90
831;DHT22;397;50.564;7.272;2023-11-21T15:29:48;10.00;99.90
831;DHT22;397;50.564;7.272;2023-11-21T15:32:16;10.00;99.90
831;DHT22;397;50.564;7.272;2023-11-21T15:34:44;9.90;99.90
831;DHT22;397;50.564;7.272;2023-11-21T15:37:13;10.00;99.90
831;DHT22;397;50.564;7.272;2023-11-21T15:39:41;10.00;99.90
831;DHT22;397;50.564;7.272;2023-11-21T15:42:09;10.00;99.90
831;DHT22;397;50.564;7.272;2023-11-21T15:44:36;10.00;99.90
831;DHT22;397;50.564;7.272;2023-11-21T15:47:05;10.00;99.90
831;DHT22;397;50.564;7.272;2023-11-21T15:49:34;9.90;99.90
831;DHT22;397;50.564;7.272;2023-11-21T15:52:06;9.90;99.90
831;DHT22;397;50.564;7.272;2023-11-21T15:54:35;9.90;99.90
831;DHT22;397;50.564;7.272;2023-11-21T15:57:03;9.90;99.90
831;DHT22;397;50.564;7.272;2023-11-21T15:59:32;9.90;99.90
831;DHT22;397;50.564;7.272;2023-11-21T16:02:00;9.90;99.90
831;DHT22;397;50.564;7.272;2023-11-21T16:04:29;9.90;99.90
831;DHT22;397;50.564;7.272;2023-11-21T16:06:57;9.90;99.90
831;DHT22;397;50.564;7.272;2023-11-21T16:09:26;9.90;99.90
831;DHT22;397;50.564;7.272;2023-11-21T16:12:02;9.90;99.90
831;DHT22;397;50.564;7.272;2023-11-21T16:14:34;9.80;99.90
831;DHT22;397;50.564;7.272;2023-11-21T16:17:04;9.80;99.90
831;DHT22;397;50.564;7.272;2023-11-21T16:19:35;9.90;99.90
831;DHT22;397;50.564;7.272;2023-11-21T16:22:03;9.90;99.90
831;DHT22;397;50.564;7.272;2023-11-21T16:24:30;9.80;99.90
831;DHT22;397;50.564;7.272;2023-11-21T16:27:00;9.80;99.90
831;DHT22;397;50.564;7.272;2023-11-21T16:29:28;9.80;99.90
831;DHT22;397;50.564;7.272;2023-11-21T16:31:57;9.80;99.90
831;DHT22;397;50.564;7.272;2023-11-21T16:34:26;9.80;99.90
831;DHT22;397;50.564;7.272;2023-11-21T16:36:54;9.80;99.90
831;DHT22;397;50.564;7.272;2023-11-21T16:39:25;9.80;99.90
831;DHT22;397;50.564;7.272;2023-11-21T16:41:54;9.80;99.90
831;DHT22;397;50.564;7.272;2023-11-21T16:44:22;9.80;99.90
831;DHT22;397;50.564;7.272;2023-11-21T16:46:50;9.80;99.90
831;DHT22;397;50.564;7.272;2023-11-21T16:49:23;9.80;99.90
831;DHT22;397;50.564;7.272;2023-11-21T16:51:52;9.80;99.90
831;DHT22;397;50.564;7.272;2023-11-21T16:54:21;9.80;99.90
831;DHT22;397;50.564;7.272;2023-11-21T16:56:49;9.90;99.90
831;DHT22;397;50.564;7.272;2023-11-21T16:59:16;9.90;99.90
831;DHT22;397;50.564;7.272;2023-11-21T17:01:44;9.80;99.90
831;DHT22;397;50.564;7.272;2023-11-21T17:04:13;9.90;99.90
831;DHT22;397;50.564;7.272;2023-11-21T17:06:45;9.80;99.90
831;DHT22;397;50.564;7.272;2023-11-21T17:09:15;9.80;99.90